createdAt,value
2022-10-04T00:01:01.582Z,98400.22
2022-10-04T00:03:33.183Z,98394.84
2022-10-04T00:06:01.623Z,98403.94
2022-10-04T00:08:36.325Z,98399.41
2022-10-04T00:11:07.492Z,98402.91
2022-10-04T00:13:35.970Z,98402.09
2022-10-04T00:16:04.402Z,98403.94
2022-10-04T00:18:38.709Z,98396.88
2022-10-04T00:21:08.073Z,98400.41
2022-10-04T00:23:48.365Z,98398.56
2022-10-04T00:27:08.861Z,98390.50
2022-10-04T00:29:38.543Z,98396.88
2022-10-04T00:32:26.793Z,98397.72
2022-10-04T00:34:55.356Z,98388.81
2022-10-04T00:37:25.073Z,98408.50
2022-10-04T00:40:13.128Z,98396.03
2022-10-04T00:42:53.895Z,98387.97
2022-10-04T00:45:35.690Z,98386.13
2022-10-04T00:48:31.662Z,98379.06
2022-10-04T00:51:04.000Z,98374.53
2022-10-04T00:53:49.672Z,98374.53
2022-10-04T00:56:24.401Z,98381.75
2022-10-04T00:59:21.877Z,98373.69
2022-10-04T01:01:54.163Z,98368.31
2022-10-04T01:04:40.860Z,98372.88
2022-10-04T01:07:09.406Z,98382.59
2022-10-04T01:09:41.450Z,98379.91
2022-10-04T01:12:15.804Z,98383.63
2022-10-04T01:14:51.232Z,98384.44
2022-10-04T01:17:19.964Z,98374.72
2022-10-04T01:19:52.702Z,98378.25
2022-10-04T01:22:41.579Z,98374.72
2022-10-04T01:25:10.579Z,98375.56
2022-10-04T01:27:42.730Z,98376.38
2022-10-04T01:30:13.645Z,98373.69
2022-10-04T01:32:42.059Z,98372.03
2022-10-04T01:35:13.016Z,98367.47
2022-10-04T01:37:42.719Z,98369.34
2022-10-04T01:40:11.690Z,98368.47
2022-10-04T01:42:44.770Z,98362.28
2022-10-04T01:45:18.324Z,98364.97
2022-10-04T01:47:49.846Z,98349.66
2022-10-04T01:50:21.840Z,98368.47
2022-10-04T01:52:53.121Z,98367.66
2022-10-04T01:55:25.755Z,98363.97
2022-10-04T01:57:56.384Z,98370.34
2022-10-04T02:00:25.483Z,98361.44
2022-10-04T02:02:55.364Z,98364.97
2022-10-04T02:05:30.373Z,98358.75
2022-10-04T02:08:03.470Z,98374.88
2022-10-04T02:10:33.692Z,98376.75
2022-10-04T02:13:02.149Z,98375.72
2022-10-04T02:15:30.649Z,98374.06
2022-10-04T02:17:59.040Z,98363.31
2022-10-04T02:20:28.038Z,98363.31
2022-10-04T02:22:59.510Z,98367.66
2022-10-04T02:25:28.209Z,98362.47
2022-10-04T02:27:56.850Z,98370.53
2022-10-04T02:30:25.659Z,98366.97
2022-10-04T02:32:57.789Z,98367.84
2022-10-04T02:35:27.513Z,98362.47
2022-10-04T02:38:05.469Z,98361.59
2022-10-04T02:40:40.285Z,98361.59
2022-10-04T02:43:13.485Z,98364.28
2022-10-04T02:45:48.133Z,98374.22
2022-10-04T02:48:31.541Z,98356.22
2022-10-04T02:51:06.588Z,98357.09
2022-10-04T02:53:44.092Z,98353.53
2022-10-04T02:56:13.152Z,98360.78
2022-10-04T02:58:41.732Z,98351.88
2022-10-04T03:01:18.741Z,98366.16
2022-10-04T03:03:47.682Z,98360.78
2022-10-04T03:06:18.379Z,98373.38
2022-10-04T03:08:50.175Z,98365.31
2022-10-04T03:11:19.750Z,98380.44
2022-10-04T03:13:50.124Z,98368.00
2022-10-04T03:16:18.760Z,98377.75
2022-10-04T03:18:47.285Z,98368.84
2022-10-04T03:21:18.546Z,98373.38
2022-10-04T03:23:48.347Z,98374.22
2022-10-04T03:26:26.090Z,98370.69
2022-10-04T03:28:54.617Z,98365.31
2022-10-04T03:31:23.282Z,98369.03
2022-10-04T03:33:51.935Z,98374.41
2022-10-04T03:36:20.608Z,98362.84
2022-10-04T03:38:50.605Z,98366.34
2022-10-04T03:41:18.989Z,98367.34
2022-10-04T03:43:49.643Z,98369.88
2022-10-04T03:46:18.616Z,98368.22
2022-10-04T03:48:50.306Z,98366.34
2022-10-04T03:51:21.401Z,98365.53
2022-10-04T03:53:53.535Z,98367.34
2022-10-04T03:56:25.982Z,98372.56
2022-10-04T03:58:54.672Z,98378.97
2022-10-04T04:01:45.442Z,98374.59
2022-10-04T04:04:22.391Z,98378.09
2022-10-04T04:07:03.765Z,98371.91
2022-10-04T04:09:40.631Z,98375.41
2022-10-04T04:12:14.861Z,98378.97
2022-10-04T04:14:43.427Z,98395.09
2022-10-04T04:17:36.960Z,98396.91
2022-10-04T04:20:08.880Z,98404.00
2022-10-04T04:22:37.913Z,98394.22
2022-10-04T04:25:10.085Z,98398.78
2022-10-04T04:27:40.018Z,98396.91
2022-10-04T04:30:09.422Z,98397.94
2022-10-04T04:32:40.305Z,98388.03
2022-10-04T04:35:24.089Z,98394.22
2022-10-04T04:38:17.991Z,98401.47
2022-10-04T04:40:47.872Z,98410.38
2022-10-04T04:43:27.305Z,98404.16
2022-10-04T04:46:22.699Z,98412.22
2022-10-04T04:48:49.471Z,98409.53
2022-10-04T04:51:21.352Z,98411.41
2022-10-04T04:53:49.809Z,98414.91
2022-10-04T04:56:23.613Z,98419.47
2022-10-04T04:58:52.785Z,98418.63
2022-10-04T05:01:25.815Z,98424.00
2022-10-04T05:04:04.949Z,98427.53
2022-10-04T05:06:34.995Z,98433.75
2022-10-04T05:09:03.555Z,98440.13
2022-10-04T05:11:35.496Z,98436.25
2022-10-04T05:14:06.999Z,98450.19
2022-10-04T05:16:40.080Z,98453.03
2022-10-04T05:19:13.551Z,98455.91
2022-10-04T05:21:44.644Z,98452.41
2022-10-04T05:24:15.183Z,98457.59
2022-10-04T05:26:45.026Z,98467.16
2022-10-04T05:29:18.413Z,98460.09
2022-10-04T05:31:49.235Z,98464.66
2022-10-04T05:34:23.000Z,98465.66
2022-10-04T05:37:07.725Z,98472.53
2022-10-04T05:39:39.871Z,98474.53
2022-10-04T05:42:15.433Z,98476.25
2022-10-04T05:44:50.719Z,98476.91
2022-10-04T05:47:22.956Z,98476.91
2022-10-04T05:49:53.591Z,98481.09
2022-10-04T05:52:30.958Z,98490.34
2022-10-04T05:55:35.320Z,98496.72
2022-10-04T05:58:26.015Z,98501.28
2022-10-04T06:01:11.988Z,98500.44
2022-10-04T06:04:21.297Z,98500.44
2022-10-04T06:06:52.477Z,98505.16
2022-10-04T06:09:45.645Z,98510.19
2022-10-04T06:12:17.213Z,98512.88
2022-10-04T06:15:03.915Z,98520.09
2022-10-04T06:17:45.815Z,98516.22
2022-10-04T06:21:04.644Z,98525.63
2022-10-04T06:23:34.091Z,98527.34
2022-10-04T06:26:05.194Z,98534.38
2022-10-04T06:28:35.655Z,98526.97
2022-10-04T06:31:33.705Z,98531.69
2022-10-04T06:34:18.324Z,98540.59
2022-10-04T06:37:09.784Z,98545.13
2022-10-04T06:40:17.610Z,98542.63
2022-10-04T06:42:57.733Z,98554.22
2022-10-04T06:45:41.573Z,98549.84
2022-10-04T06:48:27.069Z,98567.84
2022-10-04T06:50:57.323Z,98558.25
2022-10-04T06:53:29.358Z,98561.81
2022-10-04T06:56:27.899Z,98566.16
2022-10-04T06:59:18.646Z,98568.66
2022-10-04T07:01:50.552Z,98572.03
2022-10-04T07:04:49.947Z,98569.34
2022-10-04T07:07:35.177Z,98575.75
2022-10-04T07:10:24.902Z,98574.91
2022-10-04T07:13:05.937Z,98579.25
2022-10-04T07:15:37.915Z,98579.25
2022-10-04T07:18:10.086Z,98581.13
2022-10-04T07:20:39.849Z,98583.63
2022-10-04T07:23:14.402Z,98590.84
2022-10-04T07:25:46.383Z,98582.44
2022-10-04T07:28:35.039Z,98590.50
2022-10-04T07:31:06.465Z,98589.84
2022-10-04T07:33:38.463Z,98594.22
2022-10-04T07:36:11.433Z,98594.22
2022-10-04T07:38:48.633Z,98599.59
2022-10-04T07:41:23.267Z,98594.38
2022-10-04T07:43:54.558Z,98604.13
2022-10-04T07:46:45.110Z,98599.59
2022-10-04T07:49:15.946Z,98603.13
2022-10-04T07:52:06.999Z,98602.28
2022-10-04T07:54:40.054Z,98601.09
2022-10-04T07:57:14.544Z,98602.97
2022-10-04T07:59:49.709Z,98617.41
2022-10-04T08:02:30.848Z,98619.09
2022-10-04T08:05:08.231Z,98624.63
2022-10-04T08:07:49.615Z,98613.72
2022-10-04T08:10:25.936Z,98620.75
2022-10-04T08:13:03.401Z,98615.38
2022-10-04T08:15:39.808Z,98612.69
2022-10-04T08:18:26.860Z,98621.59
2022-10-04T08:20:58.230Z,98618.91
2022-10-04T08:24:11.651Z,98625.16
2022-10-04T08:26:50.142Z,98624.47
2022-10-04T08:30:00.399Z,98630.53
2022-10-04T08:32:47.200Z,98636.75
2022-10-04T08:35:37.654Z,98636.53
2022-10-04T08:38:42.557Z,98630.34
2022-10-04T08:42:04.887Z,98645.63
2022-10-04T08:45:06.466Z,98640.41
2022-10-04T08:48:18.360Z,98643.28
2022-10-04T08:51:38.695Z,98644.28
2022-10-04T08:54:37.069Z,98648.84
2022-10-04T08:57:30.505Z,98652.03
2022-10-04T09:00:15.921Z,98651.06
2022-10-04T09:03:35.702Z,98654.72
2022-10-04T09:06:38.135Z,98651.72
2022-10-04T09:10:02.528Z,98646.34
2022-10-04T09:12:47.233Z,98653.38
2022-10-04T09:15:27.774Z,98665.81
2022-10-04T09:18:02.769Z,98664.13
2022-10-04T09:20:44.705Z,98657.09
2022-10-04T09:24:02.095Z,98673.22
2022-10-04T09:26:35.017Z,98678.59
2022-10-04T09:29:42.576Z,98680.28
2022-10-04T09:32:31.648Z,98675.72
2022-10-04T09:35:36.483Z,98674.91
2022-10-04T09:38:23.442Z,98676.56
2022-10-04T09:41:15.264Z,98686.31
2022-10-04T09:44:11.083Z,98695.91
2022-10-04T09:47:03.754Z,98684.63
2022-10-04T09:50:05.890Z,98685.66
2022-10-04T09:52:41.994Z,98691.53
2022-10-04T09:55:35.205Z,98692.19
2022-10-04T09:58:43.412Z,98692.38
2022-10-04T10:01:16.728Z,98697.09
2022-10-04T10:04:22.946Z,98696.06
2022-10-04T10:07:03.597Z,98703.78
2022-10-04T10:09:55.037Z,98701.44
2022-10-04T10:13:19.458Z,98709.84
2022-10-04T10:15:59.669Z,98706.47
2022-10-04T10:18:39.986Z,98719.41
2022-10-04T10:21:45.521Z,98723.16
2022-10-04T10:24:37.653Z,98727.66
2022-10-04T10:27:25.157Z,98724.97
2022-10-04T10:30:17.620Z,98723.16
2022-10-04T10:33:38.121Z,98722.13
2022-10-04T10:36:27.995Z,98727.03
2022-10-04T10:39:15.014Z,98730.19
2022-10-04T10:41:57.541Z,98722.13
2022-10-04T10:44:34.773Z,98725.50
2022-10-04T10:47:38.706Z,98737.75
2022-10-04T10:50:55.147Z,98733.38
2022-10-04T10:53:41.527Z,98734.56
2022-10-04T10:56:44.150Z,98727.34
2022-10-04T11:00:00.337Z,98735.72
2022-10-04T11:03:13.217Z,98734.91
2022-10-04T11:06:30.567Z,98730.34
2022-10-04T11:09:29.646Z,98746.00
2022-10-04T11:12:46.069Z,98739.09
2022-10-04T11:16:01.410Z,98735.56
2022-10-04T11:19:18.545Z,98734.75
2022-10-04T11:22:44.881Z,98735.72
2022-10-04T11:25:29.959Z,98734.91
2022-10-04T11:28:02.476Z,98732.06
2022-10-04T11:30:38.391Z,98738.25
2022-10-04T11:34:02.540Z,98741.09
2022-10-04T11:36:43.010Z,98742.81
2022-10-04T11:40:01.428Z,98751.88
2022-10-04T11:42:48.613Z,98740.28
2022-10-04T11:45:39.868Z,98729.53
2022-10-04T11:48:19.929Z,98734.91
2022-10-04T11:51:11.269Z,98748.19
2022-10-04T11:54:14.491Z,98735.72
2022-10-04T11:56:59.822Z,98745.66
2022-10-04T11:59:43.009Z,98742.97
2022-10-04T12:03:08.040Z,98744.81
2022-10-04T12:05:52.995Z,98749.03
2022-10-04T12:08:34.318Z,98744.81
2022-10-04T12:12:15.737Z,98755.56
2022-10-04T12:14:54.905Z,98752.53
2022-10-04T12:18:13.842Z,98753.72
2022-10-04T12:21:28.974Z,98744.66
2022-10-04T12:24:16.041Z,98751.88
2022-10-04T12:27:39.179Z,98750.19
2022-10-04T12:30:26.658Z,98757.25
2022-10-04T12:33:12.217Z,98758.13
2022-10-04T12:35:57.812Z,98756.25
2022-10-04T12:38:39.400Z,98753.56
2022-10-04T12:41:14.091Z,98749.19
2022-10-04T12:43:46.748Z,98750.88
2022-10-04T12:46:29.837Z,98751.88
2022-10-04T12:49:14.837Z,98748.19
2022-10-04T12:51:52.924Z,98757.25
2022-10-04T12:54:36.080Z,98765.31
2022-10-04T12:57:41.239Z,98765.31
2022-10-04T13:00:19.114Z,98770.69
2022-10-04T13:03:30.864Z,98766.19
2022-10-04T13:06:07.332Z,98773.38
2022-10-04T13:08:52.515Z,98770.69
2022-10-04T13:11:33.527Z,98769.88
2022-10-04T13:14:41.132Z,98777.44
2022-10-04T13:17:28.061Z,98780.97
2022-10-04T13:20:27.101Z,98778.13
2022-10-04T13:22:58.511Z,98787.84
2022-10-04T13:25:45.296Z,98788.34
2022-10-04T13:28:23.227Z,98792.06
2022-10-04T13:30:57.263Z,98787.50
2022-10-04T13:33:29.620Z,98792.06
2022-10-04T13:36:06.498Z,98782.31
2022-10-04T13:39:19.854Z,98789.53
2022-10-04T13:42:23.562Z,98802.66
2022-10-04T13:45:18.484Z,98798.28
2022-10-04T13:48:01.780Z,98803.66
2022-10-04T13:50:48.275Z,98795.78
2022-10-04T13:53:44.859Z,98800.13
2022-10-04T13:56:40.532Z,98805.66
2022-10-04T13:59:17.672Z,98810.88
2022-10-04T14:02:40.500Z,98804.66
2022-10-04T14:06:03.019Z,98802.81
2022-10-04T14:09:01.196Z,98804.66
2022-10-04T14:12:08.777Z,98801.16
2022-10-04T14:15:25.933Z,98801.16
2022-10-04T14:18:43.748Z,98795.59
2022-10-04T14:21:45.263Z,98801.97
2022-10-04T14:24:55.003Z,98789.53
2022-10-04T14:28:06.206Z,98791.22
2022-10-04T14:30:38.282Z,98779.44
2022-10-04T14:33:55.217Z,98788.69
2022-10-04T14:36:41.793Z,98788.53
2022-10-04T14:39:42.703Z,98785.00
2022-10-04T14:42:31.406Z,98789.53
2022-10-04T14:45:32.916Z,98792.22
2022-10-04T14:48:30.706Z,98795.59
2022-10-04T14:51:19.793Z,98793.22
2022-10-04T14:53:56.063Z,98793.06
2022-10-04T14:56:53.406Z,98795.78
2022-10-04T14:59:47.488Z,98801.97
2022-10-04T15:02:43.798Z,98810.06
2022-10-04T15:05:32.211Z,98804.66
2022-10-04T15:08:24.375Z,98807.34
2022-10-04T15:10:54.304Z,98808.19
2022-10-04T15:13:26.527Z,98815.44
2022-10-04T15:16:11.449Z,98823.50
2022-10-04T15:18:53.601Z,98824.00
2022-10-04T15:21:39.366Z,98825.00
2022-10-04T15:24:29.185Z,98835.59
2022-10-04T15:27:47.804Z,98831.91
2022-10-04T15:30:37.770Z,98829.56
2022-10-04T15:33:26.977Z,98831.38
2022-10-04T15:36:50.324Z,98835.09
2022-10-04T15:39:41.361Z,98839.63
2022-10-04T15:42:15.238Z,98845.00
2022-10-04T15:45:22.849Z,98849.56
2022-10-04T15:48:33.946Z,98846.00
2022-10-04T15:51:08.283Z,98839.63
2022-10-04T15:54:12.653Z,98854.41
2022-10-04T15:56:52.751Z,98856.59
2022-10-04T15:59:35.428Z,98850.06
2022-10-04T16:02:36.989Z,98851.91
2022-10-04T16:05:16.586Z,98857.94
2022-10-04T16:08:24.350Z,98858.13
2022-10-04T16:11:08.468Z,98857.28
2022-10-04T16:13:48.144Z,98869.91
2022-10-04T16:16:36.086Z,98866.19
2022-10-04T16:19:12.446Z,98866.19
2022-10-04T16:21:51.845Z,98865.34
2022-10-04T16:24:50.623Z,98870.75
2022-10-04T16:27:51.353Z,98875.28
2022-10-04T16:30:28.835Z,98877.97
2022-10-04T16:33:30.278Z,98877.97
2022-10-04T16:36:11.959Z,98868.19
2022-10-04T16:39:01.804Z,98883.00
2022-10-04T16:41:36.356Z,98887.72
2022-10-04T16:44:04.841Z,98894.13
2022-10-04T16:46:37.046Z,98886.88
2022-10-04T16:49:19.917Z,98886.03
2022-10-04T16:52:19.328Z,98897.78
2022-10-04T16:55:22.416Z,98890.75
2022-10-04T16:58:50.153Z,98891.72
2022-10-04T17:01:42.205Z,98900.66
2022-10-04T17:04:34.547Z,98899.66
2022-10-04T17:07:14.293Z,98897.97
2022-10-04T17:09:49.574Z,98899.66
2022-10-04T17:12:22.855Z,98904.34
2022-10-04T17:15:13.954Z,98904.19
2022-10-04T17:17:47.691Z,98904.19
2022-10-04T17:20:26.594Z,98906.88
2022-10-04T17:23:14.109Z,98905.03
2022-10-04T17:25:47.149Z,98914.75
2022-10-04T17:28:29.289Z,98913.94
2022-10-04T17:31:04.153Z,98916.94
2022-10-04T17:33:44.062Z,98916.94
2022-10-04T17:36:34.494Z,98929.22
2022-10-04T17:39:24.240Z,98920.81
2022-10-04T17:42:07.347Z,98925.69
2022-10-04T17:45:00.705Z,98928.06
2022-10-04T17:47:51.839Z,98934.47
2022-10-04T17:50:40.389Z,98934.28
2022-10-04T17:53:32.848Z,98938.81
2022-10-04T17:56:02.252Z,98940.50
2022-10-04T17:58:40.403Z,98932.94
2022-10-04T18:01:14.569Z,98928.56
2022-10-04T18:03:45.091Z,98939.31
2022-10-04T18:06:21.254Z,98940.34
2022-10-04T18:08:54.951Z,98934.13
2022-10-04T18:11:29.917Z,98938.81
2022-10-04T18:14:02.557Z,98944.88
2022-10-04T18:16:33.336Z,98935.28
2022-10-04T18:19:24.189Z,98951.44
2022-10-04T18:21:56.714Z,98954.97
2022-10-04T18:24:30.821Z,98958.66
2022-10-04T18:27:05.759Z,98955.97
2022-10-04T18:29:40.889Z,98954.78
2022-10-04T18:32:35.503Z,98956.81
2022-10-04T18:35:30.841Z,98963.03
2022-10-04T18:38:22.521Z,98962.00
2022-10-04T18:40:58.561Z,98961.16
2022-10-04T18:43:33.323Z,98965.72
2022-10-04T18:46:06.096Z,98963.03
2022-10-04T18:48:53.183Z,98970.25
2022-10-04T18:51:30.482Z,98975.63
2022-10-04T18:54:17.809Z,98975.63
2022-10-04T18:56:53.693Z,98978.34
2022-10-04T18:59:49.605Z,98980.19
2022-10-04T19:02:26.357Z,98984.53
2022-10-04T19:05:04.639Z,98987.22
2022-10-04T19:07:43.084Z,98991.94
2022-10-04T19:10:28.412Z,98986.56
2022-10-04T19:13:18.387Z,98993.63
2022-10-04T19:16:20.999Z,98999.00
2022-10-04T19:19:04.998Z,98992.63
2022-10-04T19:21:44.890Z,98989.94
2022-10-04T19:24:42.590Z,98989.25
2022-10-04T19:27:17.895Z,98994.63
2022-10-04T19:29:59.048Z,99003.53
2022-10-04T19:32:32.863Z,99002.69
2022-10-04T19:35:08.811Z,99004.53
2022-10-04T19:37:42.370Z,99005.38
2022-10-04T19:40:17.487Z,99011.78
2022-10-04T19:42:50.486Z,99016.13
2022-10-04T19:45:30.957Z,99013.44
2022-10-04T19:48:00.950Z,99013.44
2022-10-04T19:50:32.180Z,99013.44
2022-10-04T19:53:04.425Z,99017.84
2022-10-04T19:55:44.013Z,99026.75
2022-10-04T19:58:26.682Z,99026.75
2022-10-04T20:00:55.739Z,99022.34
2022-10-04T20:03:24.300Z,99032.13
2022-10-04T20:05:54.410Z,99030.44
2022-10-04T20:08:55.714Z,99026.91
2022-10-04T20:11:28.295Z,99040.34
2022-10-04T20:14:55.178Z,99027.91
2022-10-04T20:17:34.005Z,99034.13
2022-10-04T20:20:02.681Z,99034.13
2022-10-04T20:22:47.255Z,99034.97
2022-10-04T20:25:50.787Z,99039.50
2022-10-04T20:28:42.061Z,99045.72
2022-10-04T20:31:12.104Z,99048.41
2022-10-04T20:33:51.053Z,99046.56
2022-10-04T20:36:52.218Z,99041.38
2022-10-04T20:40:00.545Z,99050.41
2022-10-04T20:42:32.964Z,99050.41
2022-10-04T20:45:03.853Z,99053.97
2022-10-04T20:47:40.521Z,99069.25
2022-10-04T20:50:20.171Z,99066.56
2022-10-04T20:52:49.838Z,99067.56
2022-10-04T20:55:27.365Z,99065.72
2022-10-04T20:58:00.285Z,99063.88
2022-10-04T21:00:33.727Z,99067.56
2022-10-04T21:03:17.293Z,99068.41
2022-10-04T21:05:49.878Z,99069.25
2022-10-04T21:08:26.111Z,99066.75
2022-10-04T21:11:19.718Z,99064.88
2022-10-04T21:13:55.697Z,99075.63
2022-10-04T21:16:45.789Z,99067.56
2022-10-04T21:19:45.937Z,99069.44
2022-10-04T21:22:37.640Z,99076.66
2022-10-04T21:25:31.108Z,99076.66
2022-10-04T21:28:39.115Z,99090.09
2022-10-04T21:31:09.249Z,99084.53
2022-10-04T21:33:37.832Z,99088.06
2022-10-04T21:36:07.287Z,99082.88
2022-10-04T21:38:35.804Z,99086.41
2022-10-04T21:41:04.575Z,99077.31
2022-10-04T21:43:33.182Z,99080.00
2022-10-04T21:46:01.890Z,99074.81
2022-10-04T21:48:31.997Z,99072.94
2022-10-04T21:51:00.619Z,99065.03
2022-10-04T21:53:29.226Z,99076.66
2022-10-04T21:55:57.763Z,99081.16
2022-10-04T21:58:26.373Z,99089.25
2022-10-04T22:00:54.913Z,99090.25
2022-10-04T22:03:23.564Z,99085.72
2022-10-04T22:05:53.520Z,99092.94
2022-10-04T22:08:22.017Z,99090.25
2022-10-04T22:10:55.489Z,99079.50
2022-10-04T22:13:26.826Z,99084.88
2022-10-04T22:15:55.275Z,99086.72
2022-10-04T22:18:23.881Z,99083.03
2022-10-04T22:20:53.926Z,99077.63
2022-10-04T22:23:24.149Z,99069.56
2022-10-04T22:25:53.099Z,99057.13
2022-10-04T22:28:23.739Z,99050.94
2022-10-04T22:30:53.350Z,99047.38
2022-10-04T22:33:30.199Z,99052.59
2022-10-04T22:36:01.361Z,99050.94
2022-10-04T22:38:29.854Z,99055.28
2022-10-04T22:40:59.394Z,99056.31
2022-10-04T22:43:27.874Z,99063.50
2022-10-04T22:45:56.611Z,99058.13
2022-10-04T22:48:28.922Z,99060.81
2022-10-04T22:50:57.411Z,99065.34
2022-10-04T22:53:28.930Z,99081.50
2022-10-04T22:55:58.058Z,99079.66
2022-10-04T22:58:27.921Z,99076.94
2022-10-04T23:00:56.563Z,99076.13
2022-10-04T23:03:31.540Z,99075.28
2022-10-04T23:06:00.533Z,99077.97
2022-10-04T23:08:30.798Z,99081.50
2022-10-04T23:11:00.701Z,99087.88
2022-10-04T23:13:29.527Z,99080.66
2022-10-04T23:16:00.473Z,99081.69
2022-10-04T23:18:29.874Z,99079.00
2022-10-04T23:21:00.708Z,99089.75
2022-10-04T23:23:31.815Z,99090.59
2022-10-04T23:26:00.445Z,99072.78
2022-10-04T23:28:29.245Z,99085.34
2022-10-04T23:31:02.735Z,99079.00
2022-10-04T23:33:31.485Z,99082.66
2022-10-04T23:35:59.982Z,99080.84
2022-10-04T23:38:30.716Z,99086.38
2022-10-04T23:40:59.437Z,99064.84
2022-10-04T23:43:31.033Z,99075.59
2022-10-04T23:45:59.766Z,99076.44
2022-10-04T23:48:28.665Z,99086.38
2022-10-04T23:50:57.819Z,99084.50
2022-10-04T23:53:28.692Z,99091.75
2022-10-04T23:55:59.570Z,99090.91
2022-10-04T23:58:31.128Z,99089.06
